Time;durP1;ratioP1;P1;durP2;ratioP2;P2;SDS_P1;SDS_P2;PMS_P1;PMS_P2;Temp;Humidity;BMP_temperature;BMP_pressure;BME280_temperature;BME280_humidity;BME280_pressure;Samples;Min_cycle;Max_cycle;Signal;HPM_P1;HPM_P2
2021/06/24 00:00:37;;;;;;;4.97;3.40;;;;;;;19.32;89.05;101513.81;4964388;28;20513;-75
2021/06/24 00:03:04;;;;;;;5.78;3.33;;;;;;;19.32;89.37;101508.34;4967172;28;20045;-74
2021/06/24 00:05:30;;;;;;;9.68;3.47;;;;;;;19.24;89.70;101495.81;4962217;28;20030;-74
2021/06/24 00:07:56;;;;;;;7.05;3.25;;;;;;;19.20;89.74;101477.91;4966885;28;20050;-75
2021/06/24 00:10:21;;;;;;;7.13;3.63;;;;;;;19.13;90.02;101473.22;4966113;28;20535;-75
2021/06/24 00:12:47;;;;;;;8.55;3.67;;;;;;;19.11;90.35;101467.38;4952367;28;20026;-74
2021/06/24 00:15:13;;;;;;;6.85;3.72;;;;;;;19.12;90.33;101481.81;4962939;28;20038;-75
2021/06/24 00:17:39;;;;;;;8.27;3.60;;;;;;;19.18;89.91;101483.75;4932700;28;20093;-74
2021/06/24 00:20:05;;;;;;;7.13;3.58;;;;;;;19.08;90.14;101481.81;4966712;28;20030;-75
2021/06/24 00:22:31;;;;;;;7.68;3.42;;;;;;;19.02;91.19;101472.47;4961339;28;20027;-75
2021/06/24 00:24:56;;;;;;;8.20;3.65;;;;;;;18.99;91.02;101483.41;4946590;28;20048;-75
2021/06/24 00:27:22;;;;;;;9.30;4.00;;;;;;;18.98;90.28;101488.06;4930132;28;20039;-75
2021/06/24 00:29:47;;;;;;;10.15;3.78;;;;;;;19.00;90.67;101488.47;4966908;28;20085;-75
2021/06/24 00:32:12;;;;;;;8.88;3.35;;;;;;;19.08;89.68;101481.03;4934277;28;20023;-75
2021/06/24 00:34:38;;;;;;;6.40;3.63;;;;;;;19.09;89.04;101480.63;4964056;28;20058;-73
2021/06/24 00:37:03;;;;;;;6.38;3.67;;;;;;;19.04;89.63;101477.53;4947093;28;20027;-75
2021/06/24 00:39:29;;;;;;;11.10;3.75;;;;;;;19.02;89.97;101498.97;4940318;28;20594;-75
2021/06/24 00:41:55;;;;;;;11.35;4.20;;;;;;;18.99;90.14;101497.81;4963222;28;20038;-74
2021/06/24 00:44:21;;;;;;;9.60;4.10;;;;;;;18.97;90.54;101502.88;4946082;28;20034;-74
2021/06/24 00:46:46;;;;;;;14.02;5.05;;;;;;;19.04;90.09;101502.09;4966095;28;20031;-74
2021/06/24 00:49:12;;;;;;;8.52;3.67;;;;;;;18.97;90.20;101502.13;4943029;28;20026;-75
2021/06/24 00:51:38;;;;;;;5.10;3.70;;;;;;;19.08;89.28;101514.59;4966602;28;20034;-75
2021/06/24 00:54:04;;;;;;;8.57;3.85;;;;;;;19.01;90.05;101517.31;4946550;28;20086;-74
2021/06/24 00:56:31;;;;;;;8.32;4.05;;;;;;;19.00;89.74;101512.25;4948728;28;20043;-75
2021/06/24 00:59:03;;;;;;;7.90;3.90;;;;;;;19.02;89.67;101515.38;4948469;28;20714;-74
2021/06/24 01:01:30;;;;;;;11.52;3.88;;;;;;;19.00;90.39;101520.44;4940666;28;20104;-74
2021/06/24 01:03:56;;;;;;;8.30;3.90;;;;;;;19.04;90.45;101513.81;4952168;28;20717;-74
2021/06/24 01:06:22;;;;;;;7.38;3.70;;;;;;;19.00;90.44;101523.94;4960679;28;20050;-74
2021/06/24 01:08:49;;;;;;;9.75;3.80;;;;;;;19.03;90.95;101523.16;4967111;28;20026;-74
2021/06/24 01:11:19;;;;;;;17.63;4.28;;;;;;;19.06;90.69;101511.47;4938326;28;20683;-74
2021/06/24 01:13:46;;;;;;;9.05;4.03;;;;;;;19.04;90.86;101510.28;4944365;28;20065;-74
2021/06/24 01:16:12;;;;;;;8.90;3.22;;;;;;;19.00;91.16;101513.03;4962925;28;20043;-74
2021/06/24 01:18:38;;;;;;;6.38;3.90;;;;;;;18.91;92.05;101510.69;4951452;28;20035;-74
2021/06/24 01:21:05;;;;;;;8.98;3.88;;;;;;;18.88;91.27;101499.75;4928821;28;20038;-74
2021/06/24 01:23:41;;;;;;;12.73;4.03;;;;;;;18.91;91.11;101497.03;4929625;28;20031;-74
2021/06/24 01:26:08;;;;;;;8.60;3.83;;;;;;;18.93;91.45;101496.63;4964488;28;20505;-74
2021/06/24 01:28:34;;;;;;;11.00;4.18;;;;;;;18.83;91.26;101491.97;4943238;28;20122;-74
2021/06/24 01:30:59;;;;;;;8.93;3.80;;;;;;;18.92;91.62;101486.91;4932737;28;20331;-74
2021/06/24 01:33:25;;;;;;;7.90;3.83;;;;;;;18.84;91.18;101486.13;4965494;28;20031;-74
2021/06/24 01:35:58;;;;;;;8.82;4.10;;;;;;;18.92;90.64;101487.69;4965477;28;20509;-74
2021/06/24 01:38:24;;;;;;;6.95;3.53;;;;;;;18.85;91.51;101476.00;4956982;28;20042;-74
2021/06/24 01:41:05;;;;;;;8.30;4.00;;;;;;;18.76;92.01;101475.56;4975315;28;20061;-74
2021/06/24 01:43:31;;;;;;;8.93;3.80;;;;;;;18.77;92.17;101472.47;4961036;28;20062;-74
2021/06/24 01:45:58;;;;;;;11.07;4.18;;;;;;;18.91;90.84;101474.44;4969316;28;20053;-74
2021/06/24 01:48:26;;;;;;;11.88;3.97;;;;;;;18.93;90.09;101469.34;4969424;28;20082;-75
2021/06/24 01:50:59;;;;;;;10.63;4.03;;;;;;;18.97;89.50;101464.66;4949409;28;20058;-74
2021/06/24 01:53:25;;;;;;;10.70;3.85;;;;;;;18.91;90.38;101467.00;4968562;28;20030;-74
2021/06/24 01:55:52;;;;;;;10.50;4.20;;;;;;;18.77;91.45;101469.75;4950821;28;20039;-74
2021/06/24 01:58:23;;;;;;;11.02;4.03;;;;;;;18.79;91.40;101474.81;4952286;28;20061;-75
2021/06/24 02:01:10;;;;;;;8.15;3.75;;;;;;;18.91;90.67;101480.66;4962319;28;20034;-74
2021/06/24 02:03:42;;;;;;;8.23;3.47;;;;;;;18.81;91.30;101467.00;4957968;28;20023;-75
2021/06/24 02:06:08;;;;;;;9.90;3.58;;;;;;;18.87;91.15;101470.91;4978000;23;20050;-76
2021/06/24 02:08:36;;;;;;;11.10;3.72;;;;;;;18.89;89.94;101463.13;4949353;28;20039;-76
2021/06/24 02:11:07;;;;;;;8.80;4.43;;;;;;;18.77;91.01;101458.84;4949311;28;20051;-76
2021/06/24 02:13:36;;;;;;;9.52;3.92;;;;;;;18.70;91.76;101458.03;4965971;28;20416;-76
2021/06/24 02:16:06;;;;;;;9.27;4.15;;;;;;;18.65;92.80;101447.50;4966752;28;20262;-76
2021/06/24 02:18:32;;;;;;;12.15;4.05;;;;;;;18.65;92.11;101445.56;4961147;28;20047;-76
2021/06/24 02:21:01;;;;;;;10.80;4.13;;;;;;;18.69;91.68;101429.19;4952422;28;20090;-76
2021/06/24 02:23:36;;;;;;;7.50;3.83;;;;;;;18.69;91.82;101421.78;4950196;28;20073;-76
2021/06/24 02:26:17;;;;;;;10.23;3.85;;;;;;;18.67;91.90;101428.81;4946676;28;20096;-76
2021/06/24 02:28:48;;;;;;;;;;;;;;;18.44;93.35;101426.47;4942898;28;20162;-76
2021/06/24 02:31:17;;;;;;;7.72;3.38;;;;;;;18.59;93.28;101417.09;4950812;28;19925;-76
2021/06/24 02:33:44;;;;;;;7.30;4.00;;;;;;;18.56;93.09;101425.31;4951987;28;20469;-76
2021/06/24 02:36:18;;;;;;;11.93;4.15;;;;;;;18.64;92.32;101429.59;4951595;28;20049;-76
2021/06/24 02:38:44;;;;;;;9.50;4.10;;;;;;;18.65;91.81;101431.94;4966720;28;20038;-76
2021/06/24 02:41:09;;;;;;;8.07;3.70;;;;;;;18.67;92.43;101437.00;4950366;28;20034;-76
2021/06/24 02:43:39;;;;;;;9.43;4.13;;;;;;;18.66;92.46;101436.19;4946503;28;20038;-75
2021/06/24 02:46:05;;;;;;;9.95;4.45;;;;;;;18.66;92.66;101441.66;4965587;28;20036;-76
2021/06/24 02:48:38;;;;;;;7.43;3.90;;;;;;;18.59;92.42;101449.06;4965572;28;20397;-76
2021/06/24 02:51:04;;;;;;;8.23;3.90;;;;;;;18.54;92.91;101455.69;4966148;28;20133;-76
2021/06/24 02:53:36;;;;;;;10.02;3.85;;;;;;;18.60;92.96;101456.09;4947886;28;20027;-76
2021/06/24 02:56:05;;;;;;;8.63;4.10;;;;;;;18.56;93.07;101461.53;4947575;28;20548;-76
2021/06/24 02:58:40;;;;;;;11.23;4.20;;;;;;;18.55;92.68;101442.81;4966093;28;20035;-76
2021/06/24 03:01:23;;;;;;;9.68;4.13;;;;;;;18.58;92.24;101452.97;4953220;28;20042;-76
2021/06/24 03:03:57;;;;;;;8.25;4.60;;;;;;;18.50;92.47;101451.41;4948725;28;20182;-76
2021/06/24 03:06:23;;;;;;;8.50;4.03;;;;;;;18.45;93.02;101447.09;4956796;28;20292;-77
2021/06/24 03:08:51;;;;;;;10.73;4.43;;;;;;;18.48;93.45;101448.28;4964802;28;20037;-77
2021/06/24 03:11:28;;;;;;;7.53;4.07;;;;;;;18.56;92.63;101447.13;4962375;28;20041;-77
2021/06/24 03:13:54;;;;;;;10.55;4.20;;;;;;;18.48;92.96;101443.63;4963660;28;20043;-76
2021/06/24 03:16:34;;;;;;;8.77;4.32;;;;;;;18.44;92.92;101437.38;4952792;28;20117;-76
2021/06/24 03:19:03;;;;;;;6.85;4.25;;;;;;;18.48;92.65;101426.47;4948826;28;20047;-76
2021/06/24 03:21:29;;;;;;;9.90;4.32;;;;;;;18.40;93.32;101422.13;4946342;28;20068;-77
2021/06/24 03:23:55;;;;;;;13.00;4.18;;;;;;;18.45;93.30;101416.31;4949310;28;20026;-77
2021/06/24 03:26:21;;;;;;;12.57;4.30;;;;;;;18.42;93.03;101414.34;4963609;28;20045;-77
2021/06/24 03:28:54;;;;;;;8.55;4.10;;;;;;;18.28;94.34;101431.47;4966770;28;20093;-76
2021/06/24 03:31:23;;;;;;;11.32;4.78;;;;;;;18.39;93.58;101428.78;4946385;28;20109;-76
2021/06/24 03:33:49;;;;;;;8.63;4.43;;;;;;;18.32;93.27;101424.06;4930538;28;20034;-77
2021/06/24 03:36:18;;;;;;;8.75;4.78;;;;;;;18.18;94.00;101439.63;4947797;28;20110;-76
2021/06/24 03:38:46;;;;;;;9.98;4.65;;;;;;;18.26;93.36;101443.94;4931118;28;20137;-77
2021/06/24 03:41:15;;;;;;;11.77;4.97;;;;;;;18.32;93.42;101440.44;4942934;28;20031;-77
2021/06/24 03:43:42;;;;;;;7.65;4.35;;;;;;;18.28;93.71;101444.31;4934762;28;20397;-77
2021/06/24 03:46:08;;;;;;;7.82;4.20;;;;;;;18.24;94.21;101438.88;4933649;28;20022;-77
2021/06/24 03:48:35;;;;;;;9.60;4.53;;;;;;;18.24;94.10;101449.00;4965844;28;20042;-77
2021/06/24 03:51:15;;;;;;;10.82;4.43;;;;;;;18.25;94.06;101456.81;4962365;28;20556;-76
2021/06/24 03:53:41;;;;;;;7.75;4.40;;;;;;;18.13;94.93;101456.38;4943522;28;20497;-76
2021/06/24 03:56:08;;;;;;;9.77;4.63;;;;;;;18.17;94.59;101454.44;4966207;28;20033;-77
2021/06/24 03:58:41;;;;;;;14.07;4.97;;;;;;;18.25;94.21;101464.19;4940333;28;20035;-76
2021/06/24 04:01:08;;;;;;;11.32;4.60;;;;;;;18.25;93.98;101456.03;4962127;28;20031;-76
2021/06/24 04:03:36;;;;;;;8.20;4.72;;;;;;;18.26;93.78;101472.00;4929119;28;20031;-76
2021/06/24 04:06:05;;;;;;;7.93;4.78;;;;;;;18.17;94.18;101457.16;4938791;28;20122;-77
2021/06/24 04:08:31;;;;;;;13.20;4.68;;;;;;;18.21;93.72;101455.22;4947665;28;20444;-76
2021/06/24 04:10:56;;;;;;;12.90;4.40;;;;;;;18.19;93.98;101452.09;4962063;28;20111;-76
2021/06/24 04:13:22;;;;;;;7.70;4.20;;;;;;;18.18;94.32;101448.59;4961084;28;20042;-77
2021/06/24 04:15:50;;;;;;;8.90;4.50;;;;;;;18.16;94.24;101447.41;4931109;28;20031;-77
2021/06/24 04:18:17;;;;;;;8.35;4.05;;;;;;;18.18;94.34;101454.03;4962708;28;20035;-77
2021/06/24 04:20:46;;;;;;;12.77;4.90;;;;;;;18.11;95.68;101454.03;4962946;28;20030;-77
2021/06/24 04:23:12;;;;;;;9.63;4.97;;;;;;;18.18;95.60;101445.88;4966028;28;20037;-77
2021/06/24 04:26:04;;;;;;;7.68;4.43;;;;;;;18.11;95.92;101445.84;4960981;28;20604;-76
2021/06/24 04:28:31;;;;;;;9.90;4.72;;;;;;;18.20;95.57;101459.09;4930571;28;20062;-76
2021/06/24 04:31:03;;;;;;;8.43;4.75;;;;;;;18.25;95.55;101461.47;4929305;28;20110;-76
2021/06/24 04:33:31;;;;;;;9.38;4.65;;;;;;;18.16;95.65;101452.88;4941581;28;20027;-76
2021/06/24 04:36:15;;;;;;;8.38;4.15;;;;;;;18.07;96.44;101455.19;4960652;28;20075;-77
2021/06/24 04:38:42;;;;;;;10.85;5.05;;;;;;;18.25;94.88;101440.44;4933456;28;20038;-76
2021/06/24 04:41:08;;;;;;;6.20;4.55;;;;;;;18.18;95.35;101439.63;4942334;28;22015;-77
2021/06/24 04:43:53;;;;;;;9.63;5.05;;;;;;;18.13;96.09;101438.06;4957446;28;20485;-77
2021/06/24 04:46:19;;;;;;;9.52;4.80;;;;;;;18.04;96.30;101438.44;4954650;28;20037;-77
2021/06/24 04:48:45;;;;;;;9.85;4.70;;;;;;;18.16;95.10;101437.28;4945596;28;20137;-77
2021/06/24 04:51:39;;;;;;;10.68;4.80;;;;;;;18.19;94.28;101435.75;4949180;28;20050;-77
2021/06/24 04:54:06;;;;;;;14.13;4.93;;;;;;;18.29;94.07;101440.44;4965430;28;20102;-77
2021/06/24 04:56:36;;;;;;;12.77;4.80;;;;;;;18.27;94.23;101449.03;4949029;28;20031;-77
2021/06/24 04:59:03;;;;;;;8.40;4.47;;;;;;;18.23;95.64;101442.00;4962801;28;20035;-77
2021/06/24 05:01:54;;;;;;;8.13;4.32;;;;;;;18.22;95.30;101441.19;4937466;28;20421;-77
2021/06/24 05:04:39;;;;;;;10.57;4.32;;;;;;;18.15;95.38;101435.75;4954685;28;20638;-77
2021/06/24 05:07:09;;;;;;;8.77;4.50;;;;;;;18.23;94.19;101442.78;4949376;28;20038;-77
2021/06/24 05:09:39;;;;;;;14.02;4.28;;;;;;;18.36;94.25;101446.69;4931105;28;20035;-77
2021/06/24 05:12:09;;;;;;;8.68;4.32;;;;;;;18.42;93.82;101441.63;4945216;28;20043;-75
2021/06/24 05:14:35;;;;;;;9.38;4.13;;;;;;;18.43;93.61;101441.25;4952426;28;20042;-76
2021/06/24 05:17:01;;;;;;;10.13;4.15;;;;;;;18.54;93.41;101441.28;4951850;28;20046;-77
2021/06/24 05:19:27;;;;;;;9.98;4.13;;;;;;;18.71;92.53;101435.03;4948413;28;20134;-77
2021/06/24 05:21:53;;;;;;;9.80;4.10;;;;;;;18.93;91.46;101428.38;4936059;28;20045;-77
2021/06/24 05:24:18;;;;;;;11.23;3.75;;;;;;;19.18;90.14;101431.09;4965355;28;20030;-77
2021/06/24 05:26:44;;;;;;;11.18;4.65;;;;;;;19.35;87.87;101422.88;4966011;28;20039;-77
2021/06/24 05:29:09;;;;;;;8.00;3.88;;;;;;;19.52;87.18;101424.75;4963500;28;20027;-77
2021/06/24 05:31:37;;;;;;;6.38;3.80;;;;;;;19.72;86.64;101420.38;4963494;28;20030;-77
2021/06/24 05:34:04;;;;;;;9.75;3.95;;;;;;;19.99;86.86;101422.59;4950442;28;20125;-77
2021/06/24 05:36:31;;;;;;;11.95;3.70;;;;;;;20.13;84.71;101422.50;4950011;28;20034;-77
2021/06/24 05:38:57;;;;;;;6.95;3.28;;;;;;;20.31;83.96;101426.69;4964663;28;20416;-77
2021/06/24 05:41:23;;;;;;;4.80;3.10;;;;;;;20.56;83.01;101421.03;4951328;28;20525;-77
2021/06/24 05:43:48;;;;;;;6.78;3.40;;;;;;;20.69;81.60;101420.13;4972042;28;20026;-77
2021/06/24 05:46:14;;;;;;;9.25;3.30;;;;;;;20.73;80.51;101424.81;4967118;28;20110;-77
2021/06/24 05:48:39;;;;;;;6.93;3.05;;;;;;;21.10;78.19;101417.41;4965902;28;20039;-77
2021/06/24 05:51:05;;;;;;;6.55;3.25;;;;;;;21.04;78.71;101419.03;4966396;28;20081;-77
2021/06/24 05:53:30;;;;;;;6.38;2.55;;;;;;;20.97;79.21;101424.56;4967578;28;20034;-77
2021/06/24 05:55:58;;;;;;;5.72;2.97;;;;;;;20.94;78.37;101430.88;4946187;28;20408;-77
2021/06/24 05:58:25;;;;;;;10.68;3.13;;;;;;;21.03;78.55;101427.69;4957830;28;20034;-77
2021/06/24 06:00:54;;;;;;;7.53;2.83;;;;;;;20.96;78.18;101433.22;4967323;28;20433;-77
2021/06/24 06:03:21;;;;;;;8.32;3.00;;;;;;;20.99;77.82;101430.44;4969339;28;20509;-77
2021/06/24 06:05:51;;;;;;;9.68;2.80;;;;;;;21.02;77.15;101424.16;4958703;28;20058;-77
2021/06/24 06:08:17;;;;;;;7.20;2.37;;;;;;;21.11;77.63;101420.94;4953018;28;20434;-77
2021/06/24 06:10:43;;;;;;;3.22;2.03;;;;;;;21.04;77.65;101429.25;4947272;28;20041;-76
2021/06/24 06:13:10;;;;;;;8.75;2.83;;;;;;;21.07;76.84;101431.94;4955430;28;20038;-77
2021/06/24 06:15:38;;;;;;;5.45;2.47;;;;;;;21.22;77.13;101416.91;4948797;28;20686;-76
2021/06/24 06:18:11;;;;;;;5.72;2.33;;;;;;;21.09;75.97;101426.84;4960977;28;20063;-76
2021/06/24 06:20:37;;;;;;;9.20;2.28;;;;;;;21.23;75.15;101429.44;4962830;28;20122;-77
2021/06/24 06:23:02;;;;;;;5.78;2.13;;;;;;;21.24;74.43;101427.44;4949993;28;20121;-77
2021/06/24 06:25:28;;;;;;;4.72;1.77;;;;;;;21.42;74.54;101433.53;4965743;28;20465;-76
2021/06/24 06:27:53;;;;;;;7.18;1.80;;;;;;;21.69;74.38;101428.09;4946667;28;20046;-77
2021/06/24 06:30:19;;;;;;;5.05;2.15;;;;;;;21.79;74.62;101427.19;4966462;28;20043;-77
2021/06/24 06:32:45;;;;;;;8.20;2.25;;;;;;;21.74;73.17;101433.16;4960319;28;20038;-77
2021/06/24 06:35:11;;;;;;;9.05;2.33;;;;;;;21.55;72.02;101434.53;4962885;28;20120;-77
2021/06/24 06:37:36;;;;;;;4.30;1.75;;;;;;;21.09;73.70;101437.00;4967600;28;20445;-77
2021/06/24 06:40:03;;;;;;;5.75;2.30;;;;;;;21.02;74.63;101432.38;4948368;28;20039;-77
2021/06/24 06:42:28;;;;;;;6.70;2.15;;;;;;;20.55;76.55;101428.47;4946987;28;20031;-77
2021/06/24 06:44:54;;;;;;;7.00;2.47;;;;;;;20.67;76.53;101429.94;4942700;28;20026;-76
2021/06/24 06:47:19;;;;;;;5.55;2.17;;;;;;;20.53;76.83;101435.53;4950207;28;20705;-76
2021/06/24 06:49:45;;;;;;;5.10;2.30;;;;;;;20.38;77.47;101436.81;4947748;28;20117;-77
2021/06/24 06:52:10;;;;;;;5.53;1.95;;;;;;;20.52;77.47;101442.97;4968034;28;20074;-77
2021/06/24 06:54:36;;;;;;;3.22;1.90;;;;;;;20.41;77.89;101447.75;4970460;28;20030;-77
2021/06/24 06:57:02;;;;;;;6.93;2.40;;;;;;;20.48;76.98;101446.91;4961829;28;20039;-77
2021/06/24 06:59:29;;;;;;;4.30;2.72;;;;;;;20.32;78.82;101447.44;4948127;28;20037;-77
2021/06/24 07:01:54;;;;;;;5.10;2.40;;;;;;;20.20;79.42;101447.88;4956992;28;20493;-77
2021/06/24 07:04:21;;;;;;;6.72;2.42;;;;;;;20.26;78.71;101456.44;4961082;28;20056;-77
2021/06/24 07:06:46;;;;;;;6.85;2.40;;;;;;;20.14;79.69;101441.25;4965982;28;20101;-77
2021/06/24 07:09:12;;;;;;;8.68;2.55;;;;;;;20.04;78.95;101436.63;4966964;28;20030;-77
2021/06/24 07:11:37;;;;;;;4.07;1.88;;;;;;;20.10;78.92;101442.44;4965194;28;20516;-77
2021/06/24 07:14:03;;;;;;;4.13;2.20;;;;;;;20.40;78.43;101434.47;4956839;28;20386;-77
2021/06/24 07:16:29;;;;;;;6.20;2.10;;;;;;;20.59;79.50;101431.19;4961474;28;20026;-76
2021/06/24 07:18:54;;;;;;;6.22;2.10;;;;;;;20.88;77.72;101435.25;4965935;28;20029;-77
2021/06/24 07:21:20;;;;;;;7.57;2.50;;;;;;;20.99;76.92;101430.44;4950075;28;20504;-77
2021/06/24 07:23:45;;;;;;;8.13;2.47;;;;;;;20.90;77.78;101430.13;4962258;28;20213;-76
2021/06/24 07:26:11;;;;;;;5.07;2.00;;;;;;;20.96;76.23;101434.00;4966317;28;20496;-76
2021/06/24 07:28:36;;;;;;;6.25;2.40;;;;;;;21.28;74.02;101433.69;4955732;28;20035;-76
2021/06/24 07:31:02;;;;;;;3.92;1.95;;;;;;;21.33;72.24;101436.75;4961136;28;20045;-76
2021/06/24 07:33:27;;;;;;;4.95;2.13;;;;;;;21.58;72.39;101431.00;4950182;28;20035;-76
2021/06/24 07:35:53;;;;;;;4.30;1.90;;;;;;;21.67;74.67;101422.25;4963772;28;20042;-76
2021/06/24 07:38:18;;;;;;;9.90;2.33;;;;;;;21.74;72.72;101430.41;4941878;28;20026;-77
2021/06/24 07:40:44;;;;;;;8.20;2.72;;;;;;;21.71;69.74;101426.50;4967139;28;20147;-76
2021/06/24 07:43:10;;;;;;;4.65;2.08;;;;;;;21.99;70.19;101430.88;4943862;28;20324;-75
2021/06/24 07:45:36;;;;;;;5.10;1.92;;;;;;;22.17;70.82;101423.94;4963500;28;20042;-75
2021/06/24 07:48:03;;;;;;;4.68;1.83;;;;;;;22.32;70.45;101427.22;4946938;28;20034;-76
2021/06/24 07:50:30;;;;;;;5.25;2.72;;;;;;;22.25;68.42;101414.41;4947561;28;20046;-76
2021/06/24 07:52:55;;;;;;;5.13;2.05;;;;;;;22.47;67.30;101412.09;4966040;28;20126;-76
2021/06/24 07:55:21;;;;;;;4.97;2.17;;;;;;;22.53;67.20;101412.41;4970330;28;20118;-76
2021/06/24 07:57:47;;;;;;;7.40;2.08;;;;;;;22.35;68.30;101407.19;4964713;28;20134;-77
2021/06/24 08:00:13;;;;;;;3.10;2.10;;;;;;;22.44;68.74;101404.69;4945032;28;20126;-75
2021/06/24 08:02:43;;;;;;;6.93;2.25;;;;;;;22.51;68.79;101404.59;4963931;28;20673;-77
2021/06/24 08:05:15;;;;;;;4.53;1.95;;;;;;;22.67;69.29;101398.44;4952798;28;20464;-77
2021/06/24 08:07:44;;;;;;;3.17;1.90;;;;;;;22.93;67.27;101398.38;4949793;23;20043;-73
2021/06/24 08:10:10;;;;;;;6.25;2.30;;;;;;;23.04;68.00;101398.16;4907268;29;20031;-74
2021/06/24 08:12:36;;;;;;;5.78;2.28;;;;;;;23.03;67.66;101388.38;4924667;29;20028;-72
2021/06/24 08:15:03;;;;;;;5.43;2.20;;;;;;;23.05;68.18;101388.72;4909118;29;20043;-73
2021/06/24 08:17:29;;;;;;;8.02;2.65;;;;;;;23.32;66.55;101380.38;4910999;29;20040;-73
2021/06/24 08:19:54;;;;;;;4.82;1.90;;;;;;;23.29;67.46;101380.00;4903439;29;20043;-73
2021/06/24 08:22:20;;;;;;;7.85;2.35;;;;;;;23.41;65.70;101383.31;4907218;29;20051;-74
2021/06/24 08:24:46;;;;;;;5.55;2.03;;;;;;;23.42;65.46;101395.88;4906587;29;20024;-73
2021/06/24 08:27:11;;;;;;;4.75;2.15;;;;;;;23.46;63.00;101385.59;4905319;29;20062;-77
2021/06/24 08:29:36;;;;;;;6.70;2.17;;;;;;;23.47;63.63;101392.63;4906780;29;20040;-72
2021/06/24 08:32:02;;;;;;;4.85;2.10;;;;;;;23.35;60.50;101388.53;4901534;29;20040;-72
2021/06/24 08:34:28;;;;;;;5.60;2.05;;;;;;;23.57;63.02;101377.88;4889873;29;20039;-74
2021/06/24 08:36:54;;;;;;;5.85;2.33;;;;;;;23.67;65.56;101380.41;4903303;29;20066;-75
2021/06/24 08:39:19;;;;;;;5.60;2.40;;;;;;;23.83;61.59;101376.91;4903379;29;20453;-72
2021/06/24 08:41:48;;;;;;;6.35;2.28;;;;;;;23.95;61.30;101376.22;4905736;29;20128;-74
2021/06/24 08:44:14;;;;;;;4.75;2.05;;;;;;;24.08;59.10;101369.66;4911812;29;20024;-72
2021/06/24 08:46:40;;;;;;;4.53;1.67;;;;;;;24.08;61.47;101377.13;4885148;29;20037;-72
2021/06/24 08:49:06;;;;;;;5.47;1.77;;;;;;;24.39;59.64;101370.06;4912240;29;20102;-72
2021/06/24 08:51:32;;;;;;;3.95;1.63;;;;;;;24.62;60.62;101374.63;4912834;29;20036;-72
2021/06/24 08:54:00;;;;;;;3.63;1.73;;;;;;;24.63;59.29;101379.72;4893628;29;20067;-74
2021/06/24 08:56:25;;;;;;;3.10;2.08;;;;;;;24.55;56.00;101375.56;4911921;29;20044;-72
2021/06/24 08:58:52;;;;;;;3.22;2.00;;;;;;;24.14;59.30;101380.91;4912479;29;20048;-71
2021/06/24 09:01:19;;;;;;;3.67;2.00;;;;;;;24.21;61.32;101366.22;4907551;29;20407;-73
2021/06/24 09:03:49;;;;;;;4.78;2.08;;;;;;;23.92;62.62;101374.34;4913055;29;20051;-74
2021/06/24 09:06:15;;;;;;;5.23;1.97;;;;;;;23.50;60.51;101364.28;4909205;29;20044;-73
2021/06/24 09:08:42;;;;;;;4.60;1.83;;;;;;;23.17;67.46;101369.63;4909881;29;20639;-71
2021/06/24 09:11:13;;;;;;;2.28;1.73;;;;;;;23.14;65.28;101370.47;4910453;29;20418;-72
2021/06/24 09:13:40;;;;;;;4.10;2.08;;;;;;;23.32;62.19;101377.63;4910527;29;20036;-72
2021/06/24 09:16:19;;;;;;;3.58;1.77;;;;;;;22.97;63.94;101368.06;4907550;29;20056;-72
2021/06/24 09:18:44;;;;;;;6.43;1.95;;;;;;;23.04;63.17;101373.44;4910148;29;20031;-75
2021/06/24 09:21:20;;;;;;;2.85;1.88;;;;;;;22.88;62.88;101371.38;4903859;29;20063;-72
2021/06/24 09:23:47;;;;;;;2.97;2.03;;;;;;;22.82;66.51;101373.03;4903465;29;20042;-73
2021/06/24 09:26:14;;;;;;;7.72;2.10;;;;;;;22.93;65.33;101359.91;4905461;29;20491;-74
2021/06/24 09:28:42;;;;;;;3.60;2.25;;;;;;;22.89;67.64;101363.91;4894919;29;20499;-72
2021/06/24 09:31:22;;;;;;;4.28;1.98;;;;;;;22.98;64.81;101366.88;4904127;29;20027;-72
2021/06/24 09:33:48;;;;;;;8.57;2.17;;;;;;;22.97;65.51;101370.81;4911248;29;20123;-73
2021/06/24 09:36:30;;;;;;;2.35;1.90;;;;;;;22.95;64.90;101368.50;4909472;29;20455;-71
2021/06/24 09:38:56;;;;;;;3.58;1.90;;;;;;;23.05;67.15;101367.50;4893736;29;20531;-71
2021/06/24 09:41:21;;;;;;;6.78;2.03;;;;;;;23.03;64.31;101364.44;4890709;29;20061;-73
2021/06/24 09:43:47;;;;;;;3.83;1.85;;;;;;;22.80;66.96;101361.69;4909024;29;20042;-71
2021/06/24 09:46:19;;;;;;;3.60;2.17;;;;;;;22.83;67.38;101360.88;4907623;29;20039;-72
2021/06/24 09:49:01;;;;;;;3.40;2.30;;;;;;;22.95;66.27;101365.75;4909223;29;20584;-76
2021/06/24 09:51:32;;;;;;;3.53;1.98;;;;;;;22.97;63.24;101359.84;4901912;29;20032;-72
2021/06/24 09:53:59;;;;;;;;;;;;;;;22.92;66.03;101352.84;4902725;29;20104;-72
2021/06/24 09:56:31;;;;;;;7.50;2.58;;;;;;;23.19;61.83;101363.69;4901736;29;19933;-72
2021/06/24 09:59:03;;;;;;;5.10;2.97;;;;;;;23.08;59.81;101369.41;4906025;29;20043;-74
2021/06/24 10:01:40;;;;;;;3.05;2.28;;;;;;;23.02;62.87;101351.88;4905896;29;20036;-73
2021/06/24 10:04:33;;;;;;;5.57;2.28;;;;;;;23.01;63.64;101360.53;4906242;29;20123;-75
2021/06/24 10:07:00;;;;;;;4.63;2.70;;;;;;;23.23;63.14;101367.94;4906763;29;20107;-72
2021/06/24 10:09:27;;;;;;;5.88;2.70;;;;;;;23.33;63.20;101359.91;4909527;29;20048;-73
2021/06/24 10:11:54;;;;;;;4.72;2.30;;;;;;;23.41;62.89;101356.59;4905415;29;20036;-72
2021/06/24 10:14:20;;;;;;;4.63;2.78;;;;;;;23.54;61.99;101354.75;4902198;29;20549;-72
2021/06/24 10:16:56;;;;;;;4.85;2.90;;;;;;;23.84;61.07;101351.72;4897523;29;20115;-72
2021/06/24 10:19:26;;;;;;;4.97;3.00;;;;;;;23.97;58.86;101349.06;4899851;29;20040;-72
2021/06/24 10:21:57;;;;;;;4.07;2.92;;;;;;;23.71;55.41;101356.31;4899204;29;20042;-73
2021/06/24 10:24:31;;;;;;;6.43;3.70;;;;;;;23.76;59.39;101352.31;4905363;29;20021;-73
2021/06/24 10:26:58;;;;;;;6.32;3.10;;;;;;;23.81;57.93;101340.81;4903368;29;20335;-71
2021/06/24 10:29:24;;;;;;;5.90;3.40;;;;;;;23.72;61.35;101340.59;4902209;29;20024;-73
2021/06/24 10:31:52;;;;;;;5.43;3.38;;;;;;;23.91;59.34;101335.03;4901283;29;20243;-73
2021/06/24 10:34:19;;;;;;;6.07;3.60;;;;;;;24.00;59.02;101340.72;4900236;29;20047;-73
2021/06/24 10:37:11;;;;;;;4.80;3.30;;;;;;;23.96;59.12;101342.75;4901350;29;20039;-73
2021/06/24 10:39:37;;;;;;;4.32;2.88;;;;;;;24.08;61.52;101347.63;4902309;29;20549;-73
2021/06/24 10:42:06;;;;;;;5.82;3.47;;;;;;;24.07;60.73;101346.09;4897232;29;20688;-73
2021/06/24 10:45:03;;;;;;;4.05;3.13;;;;;;;23.86;62.39;101337.53;4903313;29;20526;-73
2021/06/24 10:47:33;;;;;;;8.13;3.35;;;;;;;23.94;60.90;101336.91;4898673;29;20051;-73
2021/06/24 10:50:27;;;;;;;6.65;3.17;;;;;;;23.84;60.47;101331.69;4893692;29;20123;-74
2021/06/24 10:53:12;;;;;;;6.88;3.53;;;;;;;23.70;61.66;101321.78;4905093;29;20402;-73
2021/06/24 10:55:42;;;;;;;5.25;3.17;;;;;;;23.72;61.79;101324.88;4877839;29;20056;-73
2021/06/24 10:58:10;;;;;;;4.47;3.13;;;;;;;23.85;62.26;101330.47;4901918;29;20036;-74
2021/06/24 11:00:44;;;;;;;4.25;2.85;;;;;;;23.91;60.54;101331.50;4907324;29;20040;-74
2021/06/24 11:03:14;;;;;;;4.93;2.95;;;;;;;23.86;63.16;101323.78;4907371;29;20040;-73
2021/06/24 11:05:42;;;;;;;4.45;2.92;;;;;;;23.93;61.90;101324.38;4902282;29;20058;-72
2021/06/24 11:08:11;;;;;;;3.75;2.90;;;;;;;23.70;61.64;101323.75;4907864;29;20087;-74
2021/06/24 11:10:53;;;;;;;3.20;2.72;;;;;;;23.61;63.48;101327.09;4907934;29;20438;-72
2021/06/24 11:16:04;;;;;;;6.03;2.90;;;;;;;23.73;63.00;101322.91;4903062;29;20044;-73
2021/06/24 11:18:38;;;;;;;5.45;3.00;;;;;;;23.57;63.18;101318.16;4904036;29;20024;-72
2021/06/24 11:21:06;;;;;;;4.50;2.60;;;;;;;23.70;63.74;101318.25;4905992;29;20039;-74
2021/06/24 11:23:44;;;;;;;4.50;2.67;;;;;;;23.80;63.57;101319.97;4907174;29;20665;-73
2021/06/24 11:26:15;;;;;;;9.35;3.03;;;;;;;23.87;64.02;101311.53;4907274;29;20043;-73
2021/06/24 11:29:02;;;;;;;8.02;3.20;;;;;;;23.92;63.47;101320.09;4890885;29;20135;-73
2021/06/24 11:31:50;;;;;;;3.80;3.08;;;;;;;23.61;65.03;101320.81;4905321;29;20054;-72
2021/06/24 11:34:28;;;;;;;5.60;3.60;;;;;;;23.63;63.66;101319.19;4901825;29;20040;-72